createdAt,value
2018-08-16T00:01:01.596Z,75.59
2018-08-16T00:03:31.086Z,75.94
2018-08-16T00:06:00.482Z,76.13
2018-08-16T00:08:29.906Z,76.05
2018-08-16T00:10:59.303Z,77.03
2018-08-16T00:13:28.789Z,77.48
2018-08-16T00:15:58.185Z,77.81
2018-08-16T00:18:27.621Z,78.15
2018-08-16T00:20:57.026Z,78.52
2018-08-16T00:23:26.541Z,78.43
2018-08-16T00:25:55.960Z,78.39
2018-08-16T00:28:25.428Z,78.84
2018-08-16T00:30:54.845Z,78.67
2018-08-16T00:33:24.321Z,78.69
2018-08-16T00:35:53.734Z,79.03
2018-08-16T00:38:23.137Z,79.62
2018-08-16T00:40:52.528Z,79.52
2018-08-16T00:43:21.972Z,79.89
2018-08-16T00:45:51.363Z,79.40
2018-08-16T00:48:20.864Z,80.24
2018-08-16T00:50:50.253Z,80.37
2018-08-16T00:53:19.766Z,80.69
2018-08-16T00:55:49.161Z,80.95
2018-08-16T00:58:18.669Z,81.34
2018-08-16T01:00:48.050Z,81.62
2018-08-16T01:03:17.469Z,81.54
2018-08-16T01:05:46.866Z,81.52
2018-08-16T01:08:16.393Z,82.20
2018-08-16T01:10:45.717Z,82.07
2018-08-16T01:13:15.113Z,82.88
2018-08-16T01:15:44.420Z,82.83
2018-08-16T01:18:13.763Z,82.86
2018-08-16T01:20:43.103Z,82.96
2018-08-16T01:23:12.553Z,83.52
2018-08-16T01:25:41.874Z,83.29
2018-08-16T01:28:11.237Z,83.50
2018-08-16T01:30:40.573Z,83.44
2018-08-16T01:33:10.460Z,83.27
2018-08-16T01:35:39.937Z,83.71
2018-08-16T01:38:09.245Z,83.72
2018-08-16T01:40:38.603Z,83.88
2018-08-16T01:43:07.923Z,84.59
2018-08-16T01:45:37.272Z,84.69
2018-08-16T01:48:06.644Z,84.14
2018-08-16T01:50:35.965Z,83.73
2018-08-16T01:53:05.357Z,84.20
2018-08-16T01:55:34.710Z,84.10
2018-08-16T01:58:04.165Z,84.38
2018-08-16T02:00:33.512Z,84.01
2018-08-16T02:03:02.842Z,84.48
2018-08-16T02:05:32.165Z,84.82
2018-08-16T02:08:01.549Z,84.78
2018-08-16T02:10:30.885Z,85.21
2018-08-16T02:13:00.248Z,85.60
2018-08-16T02:15:29.581Z,85.47
2018-08-16T02:17:58.965Z,85.89
2018-08-16T02:20:28.306Z,85.70
2018-08-16T02:22:57.645Z,86.21
2018-08-16T02:25:27.014Z,86.25
2018-08-16T02:27:56.385Z,86.53
2018-08-16T02:30:25.749Z,86.38
2018-08-16T02:32:55.195Z,86.57
2018-08-16T02:35:24.551Z,86.66
2018-08-16T02:37:53.997Z,86.83
2018-08-16T02:40:23.356Z,86.76
2018-08-16T02:42:52.809Z,87.28
2018-08-16T02:45:22.177Z,87.40
2018-08-16T02:47:51.668Z,87.80
2018-08-16T02:50:21.036Z,87.49
2018-08-16T02:52:50.437Z,87.95
2018-08-16T02:55:19.799Z,87.61
2018-08-16T02:57:49.216Z,87.12
2018-08-16T03:00:18.577Z,87.41
2018-08-16T03:02:48.043Z,87.64
2018-08-16T03:05:17.402Z,87.54
2018-08-16T03:07:46.753Z,87.65
2018-08-16T03:10:16.109Z,87.79
2018-08-16T03:12:45.456Z,87.80
2018-08-16T03:15:14.796Z,88.24
2018-08-16T03:17:44.217Z,87.88
2018-08-16T03:20:13.576Z,88.15
2018-08-16T03:22:43.048Z,88.41
2018-08-16T03:25:12.425Z,88.28
2018-08-16T03:27:41.861Z,88.39
2018-08-16T03:30:11.212Z,88.42
2018-08-16T03:32:40.656Z,88.26
2018-08-16T03:35:10.014Z,88.19
2018-08-16T03:37:39.444Z,87.87
2018-08-16T03:40:08.838Z,87.77
2018-08-16T03:42:38.262Z,88.77
2018-08-16T03:45:08.430Z,89.00
2018-08-16T03:47:37.909Z,89.05
2018-08-16T03:50:08.256Z,89.54
2018-08-16T03:52:38.061Z,89.85
2018-08-16T03:55:07.685Z,89.91
2018-08-16T03:57:37.203Z,90.09
2018-08-16T04:00:07.733Z,89.58
2018-08-16T04:02:37.302Z,90.06
2018-08-16T04:05:07.233Z,89.87
2018-08-16T04:07:36.720Z,90.05
2018-08-16T04:10:06.527Z,89.55
2018-08-16T04:12:35.899Z,89.61
2018-08-16T04:15:05.433Z,89.58
2018-08-16T04:17:36.199Z,90.05
2018-08-16T04:20:07.257Z,90.07
2018-08-16T04:22:36.820Z,89.92
2018-08-16T04:25:06.541Z,90.37
2018-08-16T04:27:35.996Z,89.72
2018-08-16T04:30:06.637Z,89.85
2018-08-16T04:32:36.056Z,90.09
2018-08-16T04:35:05.788Z,89.61
2018-08-16T04:37:35.129Z,89.52
2018-08-16T04:40:04.975Z,89.86
2018-08-16T04:42:34.341Z,89.85
2018-08-16T04:45:03.718Z,90.06
2018-08-16T04:47:33.157Z,89.65
2018-08-16T04:50:02.487Z,89.83
2018-08-16T04:52:31.856Z,90.09
2018-08-16T04:55:01.195Z,89.90
2018-08-16T04:57:30.536Z,89.03
2018-08-16T04:59:59.871Z,89.15
2018-08-16T05:02:29.253Z,89.42
2018-08-16T05:04:58.594Z,89.65
2018-08-16T05:07:27.952Z,89.32
2018-08-16T05:09:57.315Z,89.34
2018-08-16T05:12:26.750Z,89.34
2018-08-16T05:14:56.117Z,89.34
2018-08-16T05:17:25.578Z,89.06
2018-08-16T05:19:54.906Z,88.73
2018-08-16T05:22:24.261Z,88.81
2018-08-16T05:24:53.596Z,88.74
2018-08-16T05:27:22.964Z,88.60
2018-08-16T05:29:52.285Z,88.01
2018-08-16T05:32:21.713Z,87.61
2018-08-16T05:34:51.244Z,87.52
2018-08-16T05:37:20.857Z,87.41
2018-08-16T05:39:50.189Z,86.82
2018-08-16T05:42:19.601Z,86.51
2018-08-16T05:44:48.922Z,86.92
2018-08-16T05:47:18.288Z,86.25
2018-08-16T05:49:47.654Z,85.67
2018-08-16T05:52:17.121Z,85.49
2018-08-16T05:54:46.464Z,85.05
2018-08-16T05:57:15.912Z,85.06
2018-08-16T05:59:45.265Z,83.96
2018-08-16T06:02:14.636Z,83.42
2018-08-16T06:04:43.977Z,82.47
2018-08-16T06:07:14.009Z,82.92
2018-08-16T06:09:43.510Z,82.10
2018-08-16T06:12:13.103Z,81.91
2018-08-16T06:14:42.531Z,81.27
2018-08-16T06:17:11.993Z,81.21
2018-08-16T06:19:42.937Z,80.77
2018-08-16T06:22:12.554Z,80.76
2018-08-16T06:24:41.954Z,80.54
2018-08-16T06:27:11.465Z,79.36
2018-08-16T06:29:41.035Z,79.05
2018-08-16T06:32:10.506Z,78.97
2018-08-16T06:34:39.894Z,79.25
2018-08-16T06:37:09.364Z,79.28
2018-08-16T06:39:38.746Z,78.30
2018-08-16T06:42:08.272Z,78.66
2018-08-16T06:44:37.681Z,78.08
2018-08-16T06:47:07.159Z,76.63
2018-08-16T06:49:36.498Z,76.44
2018-08-16T06:52:05.953Z,75.73
2018-08-16T06:54:35.309Z,75.21
2018-08-16T06:57:04.759Z,74.28
2018-08-16T06:59:34.576Z,73.55
2018-08-16T07:02:04.454Z,73.24
2018-08-16T07:04:34.040Z,72.79
2018-08-16T07:07:03.427Z,72.31
2018-08-16T07:09:32.898Z,72.07
2018-08-16T07:12:02.368Z,71.84
2018-08-16T07:14:31.669Z,71.30
2018-08-16T07:17:01.045Z,71.55
2018-08-16T07:19:30.494Z,71.07
2018-08-16T07:21:59.857Z,70.35
2018-08-16T07:24:29.406Z,69.70
2018-08-16T07:26:58.778Z,70.72
2018-08-16T07:29:28.165Z,68.89
2018-08-16T07:31:57.590Z,68.73
2018-08-16T07:34:27.021Z,68.36
2018-08-16T07:36:56.685Z,67.23
2018-08-16T07:39:26.128Z,66.77
2018-08-16T07:41:55.480Z,66.74
2018-08-16T07:44:24.934Z,66.15
2018-08-16T07:46:54.316Z,65.62
2018-08-16T07:49:23.890Z,65.28
2018-08-16T07:51:53.313Z,65.33
2018-08-16T07:54:22.665Z,65.34
2018-08-16T07:56:52.095Z,63.70
2018-08-16T07:59:21.449Z,65.17
2018-08-16T08:01:51.711Z,63.25
2018-08-16T08:04:21.183Z,62.49
2018-08-16T08:06:50.605Z,62.76
2018-08-16T08:09:20.145Z,62.37
2018-08-16T08:11:49.358Z,61.71
2018-08-16T08:14:18.829Z,60.78
2018-08-16T08:16:48.180Z,60.68
2018-08-16T08:19:17.598Z,60.11
2018-08-16T08:21:46.959Z,59.55
2018-08-16T08:24:16.418Z,59.54
2018-08-16T08:26:45.761Z,60.00
2018-08-16T08:29:15.313Z,58.54
2018-08-16T08:31:44.695Z,57.93
2018-08-16T08:34:14.117Z,56.56
2018-08-16T08:37:00.511Z,56.20
2018-08-16T08:39:29.895Z,55.29
2018-08-16T08:41:59.308Z,55.38
2018-08-16T08:44:29.181Z,54.58
2018-08-16T08:46:58.530Z,54.53
2018-08-16T08:49:27.885Z,55.01
2018-08-16T08:51:57.311Z,54.69
2018-08-16T08:54:47.791Z,55.25
2018-08-16T08:57:35.084Z,54.28
2018-08-16T09:00:05.473Z,53.57
2018-08-16T09:02:34.833Z,53.27
2018-08-16T09:05:05.432Z,52.21
2018-08-16T09:07:34.776Z,52.37
2018-08-16T09:11:19.937Z,50.97
2018-08-16T09:14:08.296Z,50.24
2018-08-16T09:16:38.711Z,50.87
2018-08-16T09:19:08.921Z,49.48
2018-08-16T09:21:38.437Z,48.56
2018-08-16T09:24:08.043Z,48.71
2018-08-16T09:26:39.189Z,48.10
2018-08-16T09:30:26.508Z,48.14
2018-08-16T09:33:13.095Z,47.81
2018-08-16T09:35:42.419Z,48.42
2018-08-16T09:38:11.875Z,46.82
2018-08-16T09:40:41.183Z,46.58
2018-08-16T09:43:10.544Z,46.48
2018-08-16T09:48:00.391Z,47.34
2018-08-16T09:50:29.718Z,44.94
2018-08-16T09:52:59.174Z,44.28
2018-08-16T09:55:28.489Z,45.37
2018-08-16T09:57:57.869Z,44.53
2018-08-16T10:00:32.440Z,43.74
2018-08-16T10:03:01.781Z,42.36
2018-08-16T10:05:31.207Z,42.24
2018-08-16T10:08:00.533Z,42.96
2018-08-16T10:10:29.887Z,42.80
2018-08-16T10:12:59.205Z,41.97
2018-08-16T10:15:28.529Z,42.90
2018-08-16T10:17:57.877Z,42.80
2018-08-16T10:20:27.276Z,41.98
2018-08-16T10:22:56.608Z,41.56
2018-08-16T10:25:25.997Z,40.35
2018-08-16T10:27:55.352Z,41.62
2018-08-16T10:30:24.810Z,40.23
2018-08-16T10:32:54.133Z,40.57
2018-08-16T10:35:23.498Z,39.31
2018-08-16T10:37:52.796Z,41.61
2018-08-16T10:40:22.206Z,41.48
2018-08-16T10:42:51.532Z,40.27
2018-08-16T10:45:20.901Z,40.25
2018-08-16T10:47:50.225Z,39.19
2018-08-16T10:50:19.604Z,39.17
2018-08-16T10:52:48.929Z,39.04
2018-08-16T10:55:18.320Z,39.08
2018-08-16T10:57:47.665Z,39.99
2018-08-16T11:00:17.049Z,38.36
2018-08-16T11:02:46.370Z,37.57
2018-08-16T11:05:15.704Z,36.58
2018-08-16T11:07:45.064Z,37.46
2018-08-16T11:10:14.421Z,37.61
2018-08-16T11:12:43.746Z,37.13
2018-08-16T11:15:13.121Z,36.44
2018-08-16T11:17:42.452Z,35.68
2018-08-16T11:20:11.589Z,36.62
2018-08-16T11:22:40.963Z,34.73
2018-08-16T11:25:10.309Z,34.82
2018-08-16T11:27:39.641Z,35.54
2018-08-16T11:30:09.036Z,33.91
2018-08-16T11:32:38.357Z,34.95
2018-08-16T11:35:07.815Z,32.79
2018-08-16T11:37:37.075Z,32.86
2018-08-16T11:40:07.033Z,31.64
2018-08-16T11:42:36.370Z,33.84
2018-08-16T11:45:06.765Z,31.34
2018-08-16T11:47:36.121Z,33.56
2018-08-16T11:50:06.052Z,30.72
2018-08-16T11:52:35.388Z,30.45
2018-08-16T11:55:05.018Z,31.50
2018-08-16T11:57:34.403Z,32.74
2018-08-16T12:00:03.857Z,33.34
2018-08-16T12:02:33.565Z,31.36
2018-08-16T12:05:03.063Z,34.78
2018-08-16T12:07:32.453Z,32.96
2018-08-16T12:10:01.858Z,31.90
2018-08-16T12:12:31.222Z,31.51
2018-08-16T12:15:00.720Z,31.84
2018-08-16T12:17:30.051Z,31.72
2018-08-16T12:19:59.404Z,30.70
2018-08-16T12:22:29.030Z,29.60
2018-08-16T12:24:58.389Z,31.87
2018-08-16T12:27:27.758Z,31.03
2018-08-16T12:29:57.109Z,29.27
2018-08-16T12:32:26.481Z,31.41
2018-08-16T12:34:55.921Z,31.86
2018-08-16T12:37:25.260Z,29.60
2018-08-16T12:39:54.627Z,30.40
2018-08-16T12:42:24.059Z,29.42
2018-08-16T12:44:53.720Z,29.65
2018-08-16T12:47:23.191Z,30.36
2018-08-16T12:49:52.509Z,29.25
2018-08-16T12:52:21.857Z,31.78
2018-08-16T12:54:51.766Z,30.66
2018-08-16T12:57:21.130Z,29.75
2018-08-16T12:59:50.550Z,28.40
2018-08-16T13:02:19.883Z,28.16
2018-08-16T13:04:49.321Z,27.32
2018-08-16T13:07:18.755Z,29.36
2018-08-16T13:09:48.098Z,28.28
2018-08-16T13:12:17.448Z,29.14
2018-08-16T13:14:46.816Z,28.88
2018-08-16T13:17:16.140Z,29.83
2018-08-16T13:19:45.548Z,27.98
2018-08-16T13:22:14.881Z,28.91
2018-08-16T13:24:44.314Z,27.95
2018-08-16T13:27:13.803Z,29.88
2018-08-16T13:29:43.148Z,27.68
2018-08-16T13:32:12.485Z,26.10
2018-08-16T13:34:41.933Z,25.03
2018-08-16T13:37:11.874Z,25.41
2018-08-16T13:39:41.145Z,26.35
2018-08-16T13:42:10.553Z,24.93
2018-08-16T13:44:39.816Z,25.06
2018-08-16T13:47:09.190Z,26.74
2018-08-16T13:49:38.586Z,25.86
2018-08-16T13:52:08.937Z,25.98
2018-08-16T13:54:38.549Z,25.15
2018-08-16T13:57:07.904Z,27.08
2018-08-16T13:59:37.288Z,25.06
2018-08-16T14:02:06.860Z,23.35
2018-08-16T14:04:36.316Z,23.62
2018-08-16T14:07:05.711Z,25.88
2018-08-16T14:09:35.081Z,25.14
2018-08-16T14:12:04.512Z,24.89
2018-08-16T14:14:33.974Z,28.09
2018-08-16T14:17:03.440Z,28.50
2018-08-16T14:19:32.801Z,25.94
2018-08-16T14:22:02.266Z,26.60
2018-08-16T14:24:31.619Z,28.08
2018-08-16T14:27:01.046Z,25.87
2018-08-16T14:29:30.437Z,25.48
2018-08-16T14:31:59.924Z,26.18
2018-08-16T14:34:29.250Z,28.06
2018-08-16T14:36:58.677Z,28.63
2018-08-16T14:39:28.035Z,29.46
2018-08-16T14:41:57.480Z,29.66
2018-08-16T14:44:26.833Z,29.49
2018-08-16T14:46:56.275Z,27.79
2018-08-16T14:49:25.599Z,28.43
2018-08-16T14:51:54.960Z,26.88
2018-08-16T14:54:24.289Z,26.31
2018-08-16T14:56:53.679Z,24.24
2018-08-16T14:59:23.077Z,24.31
2018-08-16T15:01:52.441Z,24.34
2018-08-16T15:04:21.782Z,24.74
2018-08-16T15:06:51.144Z,24.73
2018-08-16T15:09:20.538Z,24.71
2018-08-16T15:11:49.982Z,23.84
2018-08-16T15:14:19.327Z,21.71
2018-08-16T15:16:48.764Z,24.25
2018-08-16T15:19:18.088Z,24.07
2018-08-16T15:21:47.516Z,24.15
2018-08-16T15:24:20.028Z,23.46
2018-08-16T15:26:50.029Z,23.90
2018-08-16T15:29:20.255Z,24.03
2018-08-16T15:31:49.698Z,22.93
2018-08-16T15:34:19.042Z,25.06
2018-08-16T15:36:48.372Z,25.48
2018-08-16T15:39:17.743Z,28.05
2018-08-16T15:41:47.095Z,27.70
2018-08-16T15:44:16.434Z,29.59
2018-08-16T15:46:45.813Z,29.08
2018-08-16T15:49:15.176Z,28.89
2018-08-16T15:51:44.642Z,28.90
2018-08-16T15:54:13.987Z,28.34
2018-08-16T15:56:43.451Z,25.10
2018-08-16T15:59:12.822Z,23.58
2018-08-16T16:01:42.256Z,22.65
2018-08-16T16:04:11.617Z,21.69
2018-08-16T16:06:41.100Z,21.36
2018-08-16T16:09:10.997Z,21.52
2018-08-16T16:11:40.486Z,21.61
2018-08-16T16:14:09.879Z,22.98
2018-08-16T16:16:39.268Z,21.24
2018-08-16T16:19:08.661Z,21.54
2018-08-16T16:21:38.108Z,21.44
2018-08-16T16:24:07.495Z,22.68
2018-08-16T16:26:36.900Z,22.04
2018-08-16T16:29:06.313Z,22.62
2018-08-16T16:31:35.701Z,22.35
2018-08-16T16:34:05.064Z,21.58
2018-08-16T16:36:34.480Z,21.42
2018-08-16T16:39:04.054Z,22.68
2018-08-16T16:41:33.524Z,23.54
2018-08-16T16:44:02.872Z,24.06
2018-08-16T16:46:32.314Z,24.47
2018-08-16T16:49:01.698Z,25.82
2018-08-16T16:51:31.108Z,24.30
2018-08-16T16:54:00.457Z,24.90
2018-08-16T16:56:29.918Z,25.11
2018-08-16T16:58:59.298Z,24.81
2018-08-16T17:01:28.701Z,25.42
2018-08-16T17:03:58.162Z,24.68
2018-08-16T17:06:27.515Z,25.52
2018-08-16T17:08:56.859Z,25.81
2018-08-16T17:11:26.224Z,25.81
2018-08-16T17:13:55.576Z,25.96
2018-08-16T17:16:25.022Z,26.66
2018-08-16T17:18:54.604Z,25.88
2018-08-16T17:21:24.021Z,26.86
2018-08-16T17:23:53.368Z,26.78
2018-08-16T17:26:22.811Z,28.63
2018-08-16T17:28:52.076Z,30.77
2018-08-16T17:31:21.441Z,30.22
2018-08-16T17:33:50.805Z,31.24
2018-08-16T17:36:20.402Z,30.17
2018-08-16T17:38:49.730Z,30.43
2018-08-16T17:41:19.139Z,30.98
2018-08-16T17:43:48.465Z,33.80
2018-08-16T17:46:17.841Z,34.40
2018-08-16T17:48:47.185Z,33.67
2018-08-16T17:51:16.539Z,34.04
2018-08-16T17:53:45.967Z,34.75
2018-08-16T17:56:15.310Z,34.70
2018-08-16T17:58:44.671Z,35.17
2018-08-16T18:01:14.005Z,35.00
2018-08-16T18:03:43.883Z,35.04
2018-08-16T18:06:13.234Z,35.27
2018-08-16T18:08:43.067Z,35.26
2018-08-16T18:11:12.758Z,35.72
2018-08-16T18:13:42.381Z,36.94
2018-08-16T18:16:11.719Z,36.91
2018-08-16T18:18:41.107Z,36.20
2018-08-16T18:21:10.430Z,36.32
2018-08-16T18:23:39.821Z,36.93
2018-08-16T18:26:09.181Z,36.80
2018-08-16T18:28:38.632Z,36.48
2018-08-16T18:31:08.028Z,37.19
2018-08-16T18:33:37.361Z,37.27
2018-08-16T18:36:07.096Z,37.49
2018-08-16T18:38:36.576Z,37.81
2018-08-16T18:41:06.063Z,38.37
2018-08-16T18:43:35.414Z,38.55
2018-08-16T18:46:04.797Z,38.24
2018-08-16T18:48:34.123Z,38.75
2018-08-16T18:51:03.591Z,40.09
2018-08-16T18:53:32.929Z,39.26
2018-08-16T18:56:02.390Z,40.11
2018-08-16T18:58:31.724Z,40.42
2018-08-16T19:01:01.160Z,39.95
2018-08-16T19:03:30.495Z,39.92
2018-08-16T19:05:59.873Z,40.33
2018-08-16T19:08:29.228Z,40.26
2018-08-16T19:10:58.688Z,40.37
2018-08-16T19:13:28.033Z,41.08
2018-08-16T19:15:57.486Z,41.46
2018-08-16T19:18:26.817Z,41.82
2018-08-16T19:20:56.197Z,41.33
2018-08-16T19:23:25.571Z,42.01
2018-08-16T19:25:54.896Z,43.82
2018-08-16T19:28:24.249Z,43.30
2018-08-16T19:30:53.701Z,43.48
2018-08-16T19:33:23.065Z,43.23
2018-08-16T19:35:52.562Z,43.40
2018-08-16T19:38:21.796Z,43.84
2018-08-16T19:40:51.145Z,44.76
2018-08-16T19:43:20.614Z,44.35
2018-08-16T19:45:49.976Z,45.49
2018-08-16T19:48:19.418Z,44.54
2018-08-16T19:50:48.702Z,44.99
2018-08-16T19:53:18.114Z,46.91
2018-08-16T19:55:47.461Z,46.11
2018-08-16T19:58:16.950Z,46.17
2018-08-16T20:00:46.292Z,46.35
2018-08-16T20:03:15.761Z,46.81
2018-08-16T20:05:45.137Z,45.94
2018-08-16T20:08:14.521Z,47.06
2018-08-16T20:10:43.994Z,46.80
2018-08-16T20:13:13.423Z,47.47
2018-08-16T20:15:42.736Z,46.90
2018-08-16T20:18:12.141Z,46.97
2018-08-16T20:20:41.442Z,47.04
2018-08-16T20:23:10.805Z,46.94
2018-08-16T20:25:40.226Z,46.36
2018-08-16T20:28:09.709Z,47.35
2018-08-16T20:30:40.233Z,46.70
2018-08-16T20:33:09.981Z,47.04
2018-08-16T20:35:39.333Z,47.54
2018-08-16T20:38:08.741Z,47.85
2018-08-16T20:40:38.397Z,47.70
2018-08-16T20:43:07.769Z,47.56
2018-08-16T20:45:37.228Z,46.77
2018-08-16T20:48:06.611Z,48.07
2018-08-16T20:50:36.024Z,47.67
2018-08-16T20:53:05.540Z,47.03
2018-08-16T20:55:35.152Z,46.87
2018-08-16T20:58:04.485Z,47.30
2018-08-16T21:00:34.011Z,47.43
2018-08-16T21:03:03.445Z,47.17
2018-08-16T21:05:32.883Z,47.72
2018-08-16T21:08:02.342Z,47.24
2018-08-16T21:10:31.841Z,47.31
2018-08-16T21:17:49.969Z,48.02
2018-08-16T21:20:19.329Z,47.70
2018-08-16T21:22:48.809Z,47.48
2018-08-16T21:25:18.165Z,47.22
2018-08-16T21:27:47.573Z,47.55
2018-08-16T21:30:16.915Z,47.31
2018-08-16T21:32:46.320Z,47.01
2018-08-16T21:35:15.668Z,48.75
2018-08-16T21:37:45.048Z,47.81
2018-08-16T21:40:14.409Z,47.79
2018-08-16T21:42:43.820Z,49.53
2018-08-16T21:45:13.164Z,48.91
2018-08-16T21:47:42.527Z,49.61
2018-08-16T21:50:11.876Z,49.57
2018-08-16T21:52:41.361Z,51.21
2018-08-16T21:55:10.704Z,50.60
2018-08-16T21:57:40.168Z,50.50
2018-08-16T22:00:10.356Z,50.52
2018-08-16T22:02:39.671Z,50.78
2018-08-16T22:05:09.052Z,50.20
2018-08-16T22:08:14.280Z,50.82
2018-08-16T22:10:44.380Z,51.58
2018-08-16T22:13:13.703Z,51.07
2018-08-16T22:15:43.140Z,50.82
2018-08-16T22:18:12.469Z,51.39
2018-08-16T22:20:41.860Z,52.00
2018-08-16T22:23:11.236Z,52.01
2018-08-16T22:25:40.658Z,52.64
2018-08-16T22:28:10.018Z,52.56
2018-08-16T22:30:39.472Z,52.92
2018-08-16T22:33:08.828Z,53.43
2018-08-16T22:35:38.268Z,52.96
2018-08-16T22:38:07.642Z,53.58
2018-08-16T22:40:37.066Z,53.11
2018-08-16T22:43:06.714Z,53.16
2018-08-16T22:45:36.191Z,53.45
2018-08-16T22:48:05.829Z,53.00
2018-08-16T22:50:35.311Z,54.09
2018-08-16T22:53:04.765Z,54.35
2018-08-16T22:55:34.552Z,54.66
2018-08-16T22:58:03.904Z,55.09
2018-08-16T23:00:33.337Z,54.92
2018-08-16T23:03:02.692Z,55.42
2018-08-16T23:05:32.145Z,55.15
2018-08-16T23:08:01.516Z,55.96
2018-08-16T23:10:30.947Z,57.14
2018-08-16T23:13:00.313Z,57.46
2018-08-16T23:15:29.729Z,57.66
2018-08-16T23:17:59.093Z,58.35
2018-08-16T23:20:28.556Z,58.85
2018-08-16T23:22:57.923Z,58.75
2018-08-16T23:25:27.345Z,58.28
2018-08-16T23:27:56.711Z,58.45
2018-08-16T23:30:26.146Z,56.95
2018-08-16T23:32:55.498Z,56.50
2018-08-16T23:35:24.872Z,55.19
2018-08-16T23:37:54.216Z,54.96
2018-08-16T23:40:23.677Z,54.24
2018-08-16T23:42:53.908Z,54.13
2018-08-16T23:45:23.260Z,54.43
2018-08-16T23:48:37.047Z,53.95
2018-08-16T23:51:06.504Z,54.13
2018-08-16T23:53:35.865Z,53.98
2018-08-16T23:56:05.521Z,55.25
2018-08-16T23:58:34.855Z,56.64
